»·PEaware :: T2106 KJFK-CYUL

T2106 :: KJFK-CYUL

FLIGHT INFORMATION

Flight Status: Arrived
Operator: Unknown
More flights by this operator :: More flights under this callsign
Pilot: Manbu T. (22837)
Aircraft: BOEING 737-800
(B738)
More flights by this aircraft type
Origin: KJFK Kennedy Intl
United States
Destination: CYUL Montréal-Trudeau
Canada
More flights between these airports :: More routes between these airports
Route: KJFK DCT CYUL
File this flight plan on PilotEdge
Remarks: Sample flight plan
Altitude:
(Current/Filed)
25,000ft
Speed:
(Current/Filed)
115kts
Departed: 02-Jan-19 06:30 PM
Arrived: 02-Jan-19 07:27 PM
Distance/Time
Traveled:
289nm/0:56
Distance/Time
To Go:
Arrived

Flight Plot

Page will automatically refresh every two minutes.

Flight plan parsing failed; only flown route is shown


Map Options




Map Legend


Flown Route
Filed Route
Departure Airport
Arrival Airport
Navaid (VOR, NDB)
Fix

Horizontal Profiles

Position Reports

Time Latitude Longitude Heading Altitude Ground
Speed
02-Jan-19 18:28 40.799262 -73.691366 22 6717ft 292kts
02-Jan-19 18:29 40.876140 -73.649180 20 9206ft 311kts
02-Jan-19 18:42 42.187637 -73.202785 338 25159ft 404kts
02-Jan-19 18:43 42.299576 -73.222162 338 25160ft 406kts
02-Jan-19 18:44 42.407792 -73.247769 343 25001ft 405kts
02-Jan-19 18:45 42.519525 -73.260677 338 25184ft 405kts
02-Jan-19 18:46 42.631553 -73.280137 338 25195ft 405kts
02-Jan-19 18:47 42.743111 -73.299666 338 25193ft 405kts
02-Jan-19 18:48 42.855088 -73.319356 338 25187ft 406kts
02-Jan-19 18:49 42.967042 -73.339152 338 25184ft 409kts
02-Jan-19 18:50 43.081950 -73.353318 341 25188ft 417kts
02-Jan-19 18:51 43.197237 -73.365016 341 25194ft 417kts
02-Jan-19 18:52 43.313077 -73.376951 341 25203ft 418kts
02-Jan-19 18:53 43.428475 -73.388886 341 25199ft 417kts
02-Jan-19 18:54 43.544169 -73.400939 341 25201ft 418kts
02-Jan-19 18:55 43.659725 -73.413002 341 25203ft 417kts
02-Jan-19 18:56 43.775686 -73.425159 341 25199ft 417kts
02-Jan-19 18:57 43.886359 -73.436303 339 24999ft 366kts
02-Jan-19 18:58 43.921417 -73.439991 338 24777ft 347kts
02-Jan-19 18:59 44.014558 -73.450215 340 22486ft 332kts
02-Jan-19 19:00 44.105120 -73.459911 342 19953ft 324kts
02-Jan-19 19:01 44.193428 -73.469359 343 17595ft 315kts
02-Jan-19 19:02 44.279328 -73.478587 345 15376ft 306kts
02-Jan-19 19:03 44.362640 -73.487565 347 13297ft 297kts
02-Jan-19 19:04 44.443148 -73.496238 349 10952ft 284kts
02-Jan-19 19:05 44.520169 -73.504599 349 10725ft 280kts
02-Jan-19 19:06 44.597862 -73.513037 349 10724ft 280kts
02-Jan-19 19:07 44.675597 -73.521490 349 10724ft 280kts
02-Jan-19 19:08 44.753420 -73.529961 349 10366ft 283kts
02-Jan-19 19:09 44.822353 -73.537234 349 8010ft 227kts
02-Jan-19 19:10 44.879125 -73.558090 324 5461ft 208kts
02-Jan-19 19:11 44.926541 -73.602997 326 3029ft 205kts
02-Jan-19 19:12 44.973645 -73.645877 327 1725ft 193kts
02-Jan-19 19:13 45.018560 -73.686794 327 1734ft 190kts
02-Jan-19 19:14 45.063023 -73.727379 328 1740ft 189kts
02-Jan-19 19:15 45.107453 -73.767985 329 1746ft 191kts
02-Jan-19 19:16 45.152196 -73.808927 329 1748ft 191kts
02-Jan-19 19:17 45.197015 -73.850011 329 1748ft 191kts
02-Jan-19 19:18 45.240400 -73.889907 330 1728ft 173kts
02-Jan-19 19:19 45.278341 -73.924863 330 1742ft 158kts
02-Jan-19 19:20 45.316610 -73.918998 23 1750ft 151kts
02-Jan-19 19:21 45.349777 -73.882811 41 1748ft 151kts
02-Jan-19 19:22 45.380092 -73.842857 42 1744ft 146kts
02-Jan-19 19:23 45.409977 -73.803803 42 1399ft 144kts
02-Jan-19 19:24 45.438598 -73.766362 42 653ft 138kts
02-Jan-19 19:25 45.466633 -73.729543 41 111ft 133kts
02-Jan-19 19:26 45.478611 -73.713794 47 138ft 0kts
02-Jan-19 19:27 45.478924 -73.714484 234 136ft 14kts
02-Jan-19 19:28 45.474121 -73.723643 219 122ft 31kts
02-Jan-19 19:29 45.467794 -73.732029 222 109ft 30kts
02-Jan-19 19:30 45.461433 -73.740428 234 106ft 21kts
02-Jan-19 19:31 45.459086 -73.745332 179 106ft 13kts
02-Jan-19 19:32 45.458741 -73.745335 180 106ft 0kts
02-Jan-19 19:33 45.458741 -73.745335 180 106ft 0kts
02-Jan-19 19:34 45.458741 -73.745335 180 106ft 0kts

Navigation Log

Ident Type
Flight plan parsing failed, navigation log unavailable